Portada
METAR-TAF:

METAR-TAF

Aeroports :

Aeroport Internacional de Guangzhou-Baiyun

Canton, Xina

latitud: 23-10N, longitud: 113-20E, altitud: 8 m

Observació

L'informe es va fer fa 36 minuts, a les 04:30 UTC
Vent 6 kt del Sud/Sud-Est
Temperatura 25°C
Humitat 74%
Pressió 1012 hPa
Visibilitat: 7000 m
Escasses núvols a una alçada de 1600 ft
Cel cobert a una alçada de 4300 ft

METAR: ZGGG 200430Z 16003MPS 7000 FEW016 OVC043 25/20 Q1012 NOSIG

Hora: 13:06 (05:06 UTC)

Pronòstic

L'informe es va fer fa 8 hores i 4 minuts, a les 21:02 UTC
Pronòstic vàlid del 20 a les 00 UTC al 20 a les 24 UTC
Vent 6 kt del Sud
Visibilitat: 8000 m
Cel ennuvolat a una alçada de 3000 ft

TAF: ZGGG 192102Z 2000/2024 18003MPS 8000 BKN030 TX27/2007Z TN20/2022Z

Observacions i pronòstics meteorològics de més de 4000 aeroports (METAR i TAF).

Les estacions disponibles són els punts grocs i vermells al mapa.

Posi el ratolí al punt desitjat per veure el nom de l'estació.

Feu clic per veure les observacions i els pronòstics meteorològics.

Per canviar el mapa: feu clic els botons verds amb una creu de color negre per apropar; al botó verd amb un guió per allunyar la imatge; o en les fletxes verdes per a mapes adjacents.


METAR-TAF: